Ashburn, Missouri
Current Conditions -  °F | °C
As of 10:55 AM on Saturday 22 Nov 2014 (Local Time) from KPPQ Reporting Station
Overcast Overcast  
Wind Chill: 56°   Ceiling: 1900
Heat Index: 56°   Visibility: 10mi
Dew Point: 47°   Wind: 13mph
Humidity: 71%   Direction: 200°SSW
Pressure: 30.01"   Gusts: 18mph
Location:  39.54°N, 91.17°W
Report Text: KPPQ 221655Z AUTO 20011G16KT 10SM OVC019 13/08 A3001 RMK AO2 T01320081 PWINO
Loading
Personal Weather Stations






























Interactive Weather Map New forecast layout! Learn more

10-Day Weather Forecast

Advertisements
Track Severe Weather on mobile